Parsonsburg, Maryland
Current Conditions -  °F | °C
As of 11:20 PM on Monday 22 Dec 2014 (Local Time) from KSBY Reporting Station
Overcast Overcast  
Wind Chill: 45°   Ceiling: 3900
Heat Index: 49°   Visibility: 8mi
Dew Point: 46°   Wind: 8mph
Humidity: 90%   Direction: 40°NE
Pressure: 30.03"   Gusts: NA
Location:  38.39°N, 75.47°W
Report Text: KSBY 230420Z AUTO 04007KT 8SM FEW006 SCT026 OVC039 09/08 A3003 RMK AO2 T00940078
Loading
Personal Weather Stations






























Interactive Weather Map New forecast layout! Learn more

10-Day Weather Forecast

Advertisements
Track Severe Weather on mobile